Time;durP1;ratioP1;P1;durP2;ratioP2;P2;SDS_P1;SDS_P2;PMS_P1;PMS_P2;Temp;Humidity;BMP_temperature;BMP_pressure;BME280_temperature;BME280_humidity;BME280_pressure;Samples;Min_cycle;Max_cycle;Signal;HPM_P1;HPM_P2
2024/04/23 00:00:37;;;;;;;7.15;4.20;;;2.10;99.90;;;;;;5328965;26;20053;-65
2024/04/23 00:03:03;;;;;;;8.00;4.50;;;2.10;99.90;;;;;;5333921;26;20447;-66
2024/04/23 00:05:29;;;;;;;5.82;4.10;;;2.10;99.90;;;;;;5324995;26;20009;-66
2024/04/23 00:07:54;;;;;;;6.22;4.22;;;2.10;99.90;;;;;;5321451;26;20024;-66
2024/04/23 00:10:20;;;;;;;4.70;3.90;;;2.10;99.90;;;;;;5325269;26;20021;-67
2024/04/23 00:12:46;;;;;;;6.35;4.38;;;2.00;99.90;;;;;;5321323;26;20022;-66
2024/04/23 00:15:12;;;;;;;5.60;4.60;;;2.00;99.90;;;;;;5318922;26;20005;-66
2024/04/23 00:17:37;;;;;;;7.07;4.30;;;2.00;99.90;;;;;;5319269;26;20079;-66
2024/04/23 00:20:05;;;;;;;5.88;4.22;;;2.00;99.90;;;;;;5324179;26;20321;-66
2024/04/23 00:22:32;;;;;;;7.07;4.70;;;2.00;99.90;;;;;;5312053;26;20365;-66
2024/04/23 00:24:58;;;;;;;7.32;5.05;;;1.90;99.90;;;;;;5316846;26;20037;-66
2024/04/23 00:27:43;;;;;;;5.97;4.45;;;1.90;99.90;;;;;;5297183;26;20354;-66
2024/04/23 00:30:10;;;;;;;7.00;5.00;;;1.90;99.90;;;;;;5323816;26;20016;-66
2024/04/23 00:32:35;;;;;;;5.28;4.28;;;1.80;99.90;;;;;;5319642;26;20005;-66
2024/04/23 00:35:01;;;;;;;8.00;4.75;;;1.80;99.90;;;;;;5321541;26;20015;-66
2024/04/23 00:37:27;;;;;;;7.45;4.88;;;1.80;99.90;;;;;;5324463;26;20013;-66
2024/04/23 00:39:54;;;;;;;7.82;5.20;;;1.80;99.90;;;;;;5319491;26;20078;-66
2024/04/23 00:42:20;;;;;;;7.43;4.85;;;1.80;99.90;;;;;;5316727;26;20017;-67
2024/04/23 00:44:47;;;;;;;7.95;5.50;;;1.80;99.90;;;;;;5323389;26;20019;-66
2024/04/23 00:47:14;;;;;;;7.28;5.10;;;1.80;99.90;;;;;;5330084;26;20009;-66
2024/04/23 00:49:40;;;;;;;5.05;4.30;;;1.70;99.90;;;;;;5330561;26;20024;-67
2024/04/23 00:52:06;;;;;;;6.28;4.70;;;1.80;99.90;;;;;;5335543;26;20006;-65
2024/04/23 00:54:32;;;;;;;7.35;5.18;;;1.70;99.90;;;;;;5324956;26;20024;-66
2024/04/23 00:57:01;;;;;;;5.93;5.00;;;1.80;99.90;;;;;;5328123;26;20010;-66
2024/04/23 00:59:28;;;;;;;6.10;4.50;;;1.80;99.90;;;;;;5323469;26;20018;-65
2024/04/23 01:01:55;;;;;;;6.45;4.60;;;1.70;99.90;;;;;;5324841;26;20021;-66
2024/04/23 01:04:21;;;;;;;7.60;5.22;;;1.70;99.90;;;;;;5326824;26;20020;-66
2024/04/23 01:06:49;;;;;;;7.97;4.97;;;1.60;99.90;;;;;;5324193;26;20360;-67
2024/04/23 01:09:17;;;;;;;7.85;4.85;;;1.60;99.90;;;;;;5322264;26;21236;-67
2024/04/23 01:11:43;;;;;;;7.38;5.03;;;1.60;99.90;;;;;;5318346;26;20012;-66
2024/04/23 01:14:09;;;;;;;6.43;4.88;;;1.50;99.90;;;;;;5318188;26;20013;-66
2024/04/23 01:16:40;;;;;;;7.85;4.97;;;1.50;99.90;;;;;;5316481;26;20010;-66
2024/04/23 01:19:10;;;;;;;6.85;4.75;;;1.40;99.90;;;;;;5321089;26;20009;-66
2024/04/23 01:22:00;;;;;;;7.72;4.95;;;1.40;99.90;;;;;;5314955;26;20006;-66
2024/04/23 01:24:32;;;;;;;7.13;4.68;;;1.40;99.90;;;;;;5318003;26;20001;-66
2024/04/23 01:27:18;;;;;;;8.90;5.35;;;1.40;99.90;;;;;;5316881;26;20001;-66
2024/04/23 01:29:45;;;;;;;9.20;6.40;;;1.30;99.90;;;;;;5319816;26;20017;-66
2024/04/23 01:32:11;;;;;;;6.72;5.10;;;1.30;99.90;;;;;;5331358;26;20342;-66
2024/04/23 01:34:57;;;;;;;6.55;5.38;;;1.30;99.90;;;;;;5327417;26;20005;-66
2024/04/23 01:37:25;;;;;;;7.13;5.43;;;1.30;99.90;;;;;;5328720;26;20009;-66
2024/04/23 01:39:53;;;;;;;7.55;5.95;;;1.30;99.90;;;;;;5325927;26;20023;-67
2024/04/23 01:42:19;;;;;;;7.10;5.22;;;1.30;99.90;;;;;;5331387;26;20009;-67
2024/04/23 01:44:46;;;;;;;7.90;5.47;;;1.30;99.90;;;;;;5323893;26;20020;-66
2024/04/23 01:47:12;;;;;;;7.28;5.43;;;1.30;99.90;;;;;;5330155;26;20017;-67
2024/04/23 01:49:39;;;;;;;8.35;5.60;;;1.20;99.90;;;;;;5331187;26;20005;-66
2024/04/23 01:52:05;;;;;;;6.90;5.53;;;1.20;99.90;;;;;;5330578;26;20064;-67
2024/04/23 01:54:31;;;;;;;8.75;5.68;;;1.20;99.90;;;;;;5321479;26;20033;-66
2024/04/23 01:57:02;;;;;;;7.95;5.60;;;1.20;99.90;;;;;;5330096;26;20020;-67
2024/04/23 01:59:28;;;;;;;8.65;5.88;;;1.20;99.90;;;;;;5326108;26;20027;-67
2024/04/23 02:01:56;;;;;;;8.05;5.22;;;1.10;99.90;;;;;;5325740;26;20009;-67
2024/04/23 02:04:24;;;;;;;9.10;5.57;;;1.10;99.90;;;;;;5315533;26;20100;-67
2024/04/23 02:06:50;;;;;;;8.52;5.75;;;1.10;99.90;;;;;;5321801;26;20010;-68
2024/04/23 02:09:17;;;;;;;8.95;5.63;;;1.00;99.90;;;;;;5322206;26;20087;-67
2024/04/23 02:11:46;;;;;;;6.28;4.93;;;1.00;99.90;;;;;;5323963;26;20182;-67
2024/04/23 02:14:16;;;;;;;7.13;5.78;;;0.90;99.90;;;;;;5316287;26;21058;-67
2024/04/23 02:17:01;;;;;;;8.70;6.15;;;0.90;99.90;;;;;;5327661;26;20005;-67
2024/04/23 02:19:27;;;;;;;7.28;5.15;;;0.90;99.90;;;;;;5319722;26;20409;-66
2024/04/23 02:21:54;;;;;;;7.13;5.25;;;0.80;99.90;;;;;;5327317;26;20021;-66
2024/04/23 02:24:19;;;;;;;7.00;5.38;;;0.80;99.90;;;;;;5324601;26;20009;-66
2024/04/23 02:27:05;;;;;;;5.57;4.75;;;0.80;99.90;;;;;;5323010;26;20398;-67
2024/04/23 02:29:31;;;;;;;7.60;5.60;;;0.80;99.90;;;;;;5328513;26;20055;-66
2024/04/23 02:32:04;;;;;;;8.75;6.90;;;0.70;99.90;;;;;;5331355;26;20060;-66
2024/04/23 02:34:30;;;;;;;9.10;5.22;;;0.70;99.90;;;;;;5331104;26;20021;-66
2024/04/23 02:36:56;;;;;;;7.20;5.25;;;0.70;99.90;;;;;;5328252;26;20421;-66
2024/04/23 02:39:21;;;;;;;8.52;5.60;;;0.70;99.90;;;;;;5326869;26;20009;-67
2024/04/23 02:41:52;;;;;;;9.48;5.70;;;0.70;99.90;;;;;;5323702;26;20024;-66
2024/04/23 02:44:18;;;;;;;9.07;5.97;;;0.70;99.90;;;;;;5327777;26;20381;-68
2024/04/23 02:46:44;;;;;;;7.85;5.97;;;0.70;99.90;;;;;;5327034;26;20021;-66
2024/04/23 02:49:10;;;;;;;9.32;5.22;;;0.60;99.90;;;;;;5326155;26;20009;-66
2024/04/23 02:51:56;;;;;;;7.85;5.32;;;0.60;99.90;;;;;;5318894;26;20012;-67
2024/04/23 02:54:22;;;;;;;7.20;5.82;;;0.60;99.90;;;;;;5328207;26;20342;-66
2024/04/23 02:56:50;;;;;;;8.27;6.22;;;0.60;99.90;;;;;;5323801;26;20017;-67
2024/04/23 02:59:16;;;;;;;8.02;5.35;;;0.60;99.90;;;;;;5322986;26;20008;-68
2024/04/23 03:01:42;;;;;;;8.98;5.82;;;0.60;99.90;;;;;;5348387;26;20009;-67
2024/04/23 03:04:08;;;;;;;9.48;6.13;;;0.50;99.90;;;;;;5317543;26;20036;-67
2024/04/23 03:06:34;;;;;;;7.28;5.53;;;0.60;99.90;;;;;;5331869;26;20010;-66
2024/04/23 03:09:20;;;;;;;7.10;5.45;;;0.50;99.90;;;;;;5322551;26;20498;-67
2024/04/23 03:11:52;;;;;;;7.18;5.60;;;0.50;99.90;;;;;;5326436;26;20005;-66
2024/04/23 03:14:18;;;;;;;8.80;5.43;;;0.50;99.90;;;;;;5326579;26;20009;-66
2024/04/23 03:16:45;;;;;;;11.35;6.53;;;0.50;99.90;;;;;;5323747;26;20021;-66
2024/04/23 03:19:30;;;;;;;9.77;6.03;;;0.50;99.90;;;;;;5323369;26;20037;-67
2024/04/23 03:21:57;;;;;;;6.97;5.07;;;0.50;99.90;;;;;;5319954;26;20061;-66
2024/04/23 03:24:24;;;;;;;6.55;5.40;;;0.50;99.90;;;;;;5329836;26;20010;-67
2024/04/23 03:27:05;;;;;;;7.90;5.80;;;0.40;99.90;;;;;;5325947;26;20009;-66
2024/04/23 03:29:31;;;;;;;8.80;5.95;;;0.50;99.90;;;;;;5329054;26;20025;-66
2024/04/23 03:32:01;;;;;;;8.20;5.80;;;0.40;99.90;;;;;;5325826;26;20010;-66
2024/04/23 03:34:44;;;;;;;7.05;6.00;;;0.50;99.90;;;;;;5318143;26;20458;-66
2024/04/23 03:37:09;;;;;;;7.93;5.90;;;0.40;99.90;;;;;;5326844;26;20009;-66
2024/04/23 03:40:14;;;;;;;7.32;5.45;;;0.40;99.90;;;;;;5322410;26;20081;-67
2024/04/23 03:42:40;;;;;;;7.97;6.05;;;0.30;99.90;;;;;;5324986;26;20020;-66
2024/04/23 03:45:06;;;;;;;8.07;5.88;;;0.30;99.90;;;;;;5316819;26;20009;-67
2024/04/23 03:47:31;;;;;;;8.13;5.60;;;0.30;99.90;;;;;;5326222;26;20001;-68
2024/04/23 03:50:17;;;;;;;7.03;5.43;;;0.30;99.90;;;;;;5312400;26;20470;-67
2024/04/23 03:52:43;;;;;;;8.50;6.03;;;0.30;99.90;;;;;;5322345;26;20005;-66
2024/04/23 03:55:09;;;;;;;8.88;6.40;;;0.30;99.90;;;;;;5323469;26;20144;-66
2024/04/23 03:57:34;;;;;;;8.77;6.80;;;0.30;99.90;;;;;;5324528;26;20009;-67
2024/04/23 04:00:16;;;;;;;9.98;6.70;;;0.30;99.90;;;;;;5327939;26;20464;-67
2024/04/23 04:08:21;;;;;;;10.88;8.05;;;0.20;99.90;;;;;;5324827;26;20023;-67
2024/04/23 04:11:08;;;;;;;10.02;7.22;;;0.20;99.90;;;;;;5327004;26;20029;-67
2024/04/23 04:13:39;;;;;;;10.50;7.72;;;0.20;99.90;;;;;;5328296;26;20134;-67
2024/04/23 04:16:06;;;;;;;10.02;7.30;;;0.20;99.90;;;;;;5327879;26;20474;-66
2024/04/23 04:18:52;;;;;;;9.80;7.00;;;0.20;99.90;;;;;;5323926;26;20023;-66
2024/04/23 04:21:18;;;;;;;10.35;7.25;;;0.10;99.90;;;;;;5325096;26;20006;-66
2024/04/23 04:23:44;;;;;;;10.10;7.32;;;0.20;99.90;;;;;;5324233;26;20346;-66
2024/04/23 04:26:12;;;;;;;12.93;7.85;;;0.20;99.90;;;;;;5328363;26;20006;-67
2024/04/23 04:28:38;;;;;;;11.82;7.57;;;0.20;99.90;;;;;;5316362;26;20009;-66
2024/04/23 04:31:04;;;;;;;11.60;7.15;;;0.10;99.90;;;;;;5322025;26;20086;-66
2024/04/23 04:33:30;;;;;;;11.02;7.55;;;0.20;99.90;;;;;;5318638;26;20018;-66
2024/04/23 04:35:55;;;;;;;8.98;7.45;;;0.20;99.90;;;;;;5329989;26;20010;-67
2024/04/23 04:38:21;;;;;;;12.25;7.35;;;0.20;99.90;;;;;;5319361;26;19998;-66
2024/04/23 04:40:47;;;;;;;9.02;6.75;;;0.20;99.90;;;;;;5318624;26;20467;-66
2024/04/23 04:43:13;;;;;;;10.38;6.97;;;0.20;99.90;;;;;;5320531;26;20020;-67
2024/04/23 04:45:39;;;;;;;10.82;7.60;;;0.20;99.90;;;;;;5317164;26;20021;-66
2024/04/23 04:48:05;;;;;;;12.95;7.90;;;0.20;99.90;;;;;;5320978;26;20009;-66
2024/04/23 04:50:31;;;;;;;8.88;6.53;;;0.20;99.90;;;;;;5325818;26;20005;-66
2024/04/23 04:52:57;;;;;;;7.78;6.32;;;0.40;99.90;;;;;;5326030;26;20009;-66
2024/04/23 04:55:22;;;;;;;9.82;6.13;;;0.30;99.90;;;;;;5326027;26;20020;-66
2024/04/23 04:57:48;;;;;;;11.95;7.80;;;0.30;99.90;;;;;;5331198;26;20009;-66
2024/04/23 05:00:14;;;;;;;9.30;6.97;;;0.30;99.90;;;;;;5322536;26;20009;-66
2024/04/23 05:02:40;;;;;;;11.00;6.97;;;0.30;99.90;;;;;;5321942;26;20006;-67
2024/04/23 05:05:08;;;;;;;10.88;6.70;;;0.40;99.90;;;;;;5329180;26;20468;-67
2024/04/23 05:07:34;;;;;;;8.60;6.45;;;0.40;99.90;;;;;;5325410;26;20375;-66
2024/04/23 05:10:00;;;;;;;9.75;6.85;;;0.50;99.90;;;;;;5337153;26;20001;-66
2024/04/23 05:12:26;;;;;;;11.40;7.00;;;0.60;99.90;;;;;;5326851;26;20478;-66
2024/04/23 05:14:52;;;;;;;11.10;7.72;;;0.60;99.90;;;;;;5329115;26;20087;-66
2024/04/23 05:17:18;;;;;;;10.05;7.97;;;0.70;99.90;;;;;;5332494;26;20004;-66
2024/04/23 05:19:44;;;;;;;11.43;8.35;;;0.80;99.90;;;;;;5326161;26;20023;-66
2024/04/23 05:22:11;;;;;;;9.70;8.00;;;0.90;99.90;;;;;;5319292;26;20013;-66
2024/04/23 05:24:38;;;;;;;12.70;7.97;;;1.10;99.90;;;;;;5330108;26;20488;-66
2024/04/23 05:27:03;;;;;;;13.88;7.82;;;1.10;99.90;;;;;;5331056;26;20009;-67
2024/04/23 05:29:29;;;;;;;10.68;7.47;;;1.20;99.90;;;;;;5319686;26;20446;-68
2024/04/23 05:34:40;;;;;;;10.27;7.43;;;1.40;99.90;;;;;;5336392;26;20005;-68
2024/04/23 05:37:07;;;;;;;9.80;7.00;;;1.70;99.90;;;;;;5321719;26;20366;-67
2024/04/23 05:39:33;;;;;;;9.93;8.00;;;2.10;99.90;;;;;;5321242;26;20009;-66
2024/04/23 05:41:58;;;;;;;12.63;7.72;;;2.50;99.90;;;;;;5326061;26;20020;-66
2024/04/23 05:44:24;;;;;;;11.32;8.48;;;2.70;99.90;;;;;;5324688;26;20009;-67
2024/04/23 05:46:50;;;;;;;14.98;10.57;;;3.00;99.90;;;;;;5333132;26;20460;-67
2024/04/23 05:49:54;;;;;;;7.78;6.60;;;3.20;99.90;;;;;;5331786;26;20022;-66
2024/04/23 05:52:58;;;;;;;8.20;7.03;;;3.30;99.90;;;;;;5331756;26;20151;-66
2024/04/23 05:55:38;;;;;;;8.15;6.70;;;3.20;99.90;;;;;;5324810;26;20381;-67
2024/04/23 05:58:08;;;;;;;8.93;7.47;;;3.20;99.90;;;;;;5327193;26;20140;-67
2024/04/23 06:00:35;;;;;;;7.97;6.90;;;3.20;99.90;;;;;;5326971;26;20037;-66
2024/04/23 06:03:02;;;;;;;9.15;7.18;;;3.30;99.90;;;;;;5329577;26;20020;-67
2024/04/23 06:05:28;;;;;;;10.75;7.55;;;3.30;99.90;;;;;;5327395;26;20016;-66
2024/04/23 06:07:56;;;;;;;9.85;7.47;;;3.40;99.90;;;;;;5321798;26;20028;-66
2024/04/23 06:10:22;;;;;;;10.02;8.07;;;3.50;99.90;;;;;;5328845;26;20012;-66
2024/04/23 06:12:50;;;;;;;10.75;8.30;;;3.60;99.90;;;;;;5329482;26;20049;-66
2024/04/23 06:15:17;;;;;;;9.52;7.43;;;3.70;99.90;;;;;;5323417;26;20013;-66
2024/04/23 06:17:43;;;;;;;10.05;7.68;;;3.80;99.90;;;;;;5323649;26;20047;-65
2024/04/23 06:20:09;;;;;;;8.10;6.97;;;3.90;99.90;;;;;;5319138;26;20438;-65
2024/04/23 06:22:36;;;;;;;9.75;7.72;;;3.90;99.90;;;;;;5326505;26;20353;-66
2024/04/23 06:25:04;;;;;;;10.50;7.72;;;4.10;99.90;;;;;;5329697;26;20006;-66
2024/04/23 06:27:32;;;;;;;12.95;7.80;;;4.20;99.90;;;;;;5326497;26;19997;-66
2024/04/23 06:30:08;;;;;;;11.48;8.10;;;4.30;99.90;;;;;;5328420;26;20024;-66
2024/04/23 06:32:35;;;;;;;10.82;8.55;;;4.50;99.90;;;;;;5321723;26;20014;-66
2024/04/23 06:35:01;;;;;;;11.32;8.80;;;4.60;99.90;;;;;;5330122;26;20019;-66
2024/04/23 06:37:28;;;;;;;9.73;7.80;;;4.70;99.90;;;;;;5332937;26;20416;-66
2024/04/23 06:39:53;;;;;;;10.93;8.40;;;4.80;99.90;;;;;;5330359;26;20033;-66
2024/04/23 06:42:19;;;;;;;10.60;8.57;;;4.90;99.90;;;;;;5331165;26;20019;-66
2024/04/23 06:44:45;;;;;;;11.63;8.63;;;5.00;99.90;;;;;;5326634;26;20005;-66
2024/04/23 06:47:14;;;;;;;12.65;8.38;;;5.10;99.90;;;;;;5329612;26;20020;-66
2024/04/23 06:49:42;;;;;;;10.13;8.18;;;5.10;99.90;;;;;;5325682;26;20001;-66
2024/04/23 06:52:09;;;;;;;9.38;8.07;;;5.20;99.90;;;;;;5327297;26;20005;-66
2024/04/23 06:54:35;;;;;;;9.73;8.07;;;5.20;99.90;;;;;;5330210;26;20025;-66
2024/04/23 06:57:01;;;;;;;10.52;8.10;;;5.30;99.90;;;;;;5320815;26;20010;-66
2024/04/23 06:59:26;;;;;;;9.70;8.43;;;5.40;99.90;;;;;;5325097;26;20009;-66
2024/04/23 07:01:52;;;;;;;10.88;8.45;;;5.70;99.90;;;;;;5327476;26;20086;-66
2024/04/23 07:04:18;;;;;;;10.25;8.05;;;5.80;99.90;;;;;;5325997;26;20016;-66
2024/04/23 07:06:44;;;;;;;10.05;7.60;;;5.90;99.90;;;;;;5337634;26;20044;-66
2024/04/23 07:09:11;;;;;;;9.05;7.57;;;6.10;99.90;;;;;;5330142;26;20349;-66
2024/04/23 07:11:37;;;;;;;8.73;7.47;;;6.30;99.90;;;;;;5320647;26;20922;-67
2024/04/23 07:14:03;;;;;;;10.35;7.53;;;6.40;99.90;;;;;;5316627;26;20022;-66
2024/04/23 07:16:29;;;;;;;12.65;7.70;;;6.50;99.90;;;;;;5324768;26;20020;-66
2024/04/23 07:18:55;;;;;;;9.57;8.13;;;6.60;99.90;;;;;;5323165;26;20028;-66
2024/04/23 07:21:21;;;;;;;10.65;8.02;;;6.80;99.90;;;;;;5322600;26;20005;-65
2024/04/23 07:23:48;;;;;;;9.40;8.38;;;6.90;99.90;;;;;;5325708;26;20373;-66
2024/04/23 07:26:15;;;;;;;8.85;7.40;;;7.00;99.90;;;;;;5331207;26;20009;-66
2024/04/23 07:28:41;;;;;;;9.68;7.88;;;7.10;99.90;;;;;;5325900;26;20016;-66
2024/04/23 07:31:07;;;;;;;9.02;7.47;;;7.20;99.90;;;;;;5336717;26;20364;-66
2024/04/23 07:33:33;;;;;;;9.85;8.00;;;7.30;99.90;;;;;;5334330;26;20526;-66
2024/04/23 07:35:58;;;;;;;10.40;7.57;;;7.30;99.90;;;;;;5323302;26;20124;-66
2024/04/23 07:38:24;;;;;;;11.13;8.35;;;7.40;99.90;;;;;;5333389;26;20027;-66
2024/04/23 07:40:50;;;;;;;8.68;7.35;;;7.30;99.90;;;;;;5323629;26;20057;-66
2024/04/23 07:43:16;;;;;;;8.35;6.93;;;7.40;99.90;;;;;;5325408;26;20017;-67
2024/04/23 07:45:42;;;;;;;11.65;7.18;;;7.40;99.90;;;;;;5321090;26;20027;-66
2024/04/23 07:48:08;;;;;;;8.55;6.82;;;7.60;99.90;;;;;;5330413;26;20028;-66
2024/04/23 07:50:34;;;;;;;8.23;7.22;;;7.80;99.90;;;;;;5331190;26;20094;-66
2024/04/23 07:53:04;;;;;;;9.60;6.95;;;7.90;99.90;;;;;;5327898;26;20469;-66
2024/04/23 07:55:30;;;;;;;8.35;7.35;;;8.00;99.90;;;;;;5320367;26;20353;-66
2024/04/23 07:57:55;;;;;;;8.07;6.63;;;8.20;99.90;;;;;;5317889;26;20383;-66
2024/04/23 08:00:24;;;;;;;6.78;6.07;;;8.20;99.90;;;;;;5323570;26;20020;-66
2024/04/23 08:02:54;;;;;;;7.10;6.05;;;8.30;99.90;;;;;;5313187;26;21353;-66
2024/04/23 08:05:23;;;;;;;8.38;6.53;;;8.50;99.90;;;;;;5323031;26;20021;-66
2024/04/23 08:07:49;;;;;;;9.25;6.53;;;8.60;99.90;;;;;;5318814;26;20057;-67
2024/04/23 08:10:17;;;;;;;8.75;6.57;;;8.90;99.90;;;;;;5322574;26;20479;-67
2024/04/23 08:12:47;;;;;;;6.38;5.72;;;9.10;99.90;;;;;;5324164;26;20005;-66
2024/04/23 08:15:14;;;;;;;8.55;5.50;;;9.40;99.90;;;;;;5326669;26;20001;-66
2024/04/23 08:17:43;;;;;;;6.72;5.85;;;9.80;99.90;;;;;;5330372;26;20345;-66
2024/04/23 08:20:14;;;;;;;6.70;5.22;;;10.10;99.90;;;;;;5328558;26;20010;-66
2024/04/23 08:22:40;;;;;;;5.45;4.57;;;10.70;99.90;;;;;;5326860;26;20005;-66
2024/04/23 08:25:09;;;;;;;5.70;5.00;;;11.30;99.90;;;;;;5328724;26;20017;-66
2024/04/23 08:27:36;;;;;;;5.70;4.60;;;12.10;99.90;;;;;;5325564;26;20462;-66
2024/04/23 08:30:03;;;;;;;6.05;4.90;;;12.90;99.90;;;;;;5329335;26;20009;-65
2024/04/23 08:32:29;;;;;;;6.13;3.95;;;13.50;99.90;;;;;;5323301;26;20016;-66
2024/04/23 08:34:55;;;;;;;5.43;4.65;;;13.80;99.90;;;;;;5328762;26;20005;-65
2024/04/23 08:37:21;;;;;;;4.47;3.58;;;13.90;99.90;;;;;;5328715;26;20504;-65
2024/04/23 08:39:46;;;;;;;3.67;3.25;;;14.00;99.90;;;;;;5338053;26;20020;-66
2024/04/23 08:42:14;;;;;;;3.85;3.30;;;14.00;99.90;;;;;;5335794;26;20009;-65
2024/04/23 08:44:42;;;;;;;3.95;3.35;;;14.10;99.90;;;;;;5327988;26;20349;-66
2024/04/23 08:47:08;;;;;;;5.05;3.38;;;14.20;99.90;;;;;;5325210;26;20019;-65
2024/04/23 08:49:37;;;;;;;3.78;3.30;;;14.40;99.90;;;;;;5323719;26;20049;-66
2024/04/23 08:52:07;;;;;;;3.22;2.92;;;14.60;99.90;;;;;;5336628;26;20009;-66
2024/04/23 08:54:33;;;;;;;3.55;2.92;;;14.60;99.90;;;;;;5326944;26;20354;-66
2024/04/23 08:57:00;;;;;;;3.42;2.72;;;14.80;99.90;;;;;;5329188;26;20412;-66
2024/04/23 08:59:29;;;;;;;3.35;3.03;;;14.90;99.90;;;;;;5338295;26;20695;-66
2024/04/23 09:02:01;;;;;;;4.82;3.15;;;15.10;99.90;;;;;;5329116;26;20006;-66
2024/04/23 09:04:28;;;;;;;5.18;3.20;;;15.20;99.90;;;;;;5337204;26;20016;-66
2024/04/23 09:06:54;;;;;;;4.38;3.00;;;15.30;99.90;;;;;;5330697;26;20663;-66
2024/04/23 09:09:21;;;;;;;4.45;3.00;;;15.60;99.90;;;;;;5330745;26;20016;-66
2024/04/23 09:11:50;;;;;;;4.03;3.33;;;15.90;99.90;;;;;;5335851;26;20079;-66
2024/04/23 09:14:16;;;;;;;3.92;3.00;;;15.50;97.30;;;;;;5335866;26;20017;-66
2024/04/23 09:16:41;;;;;;;4.25;2.63;;;14.70;96.00;;;;;;5335687;26;20016;-66
2024/04/23 09:19:08;;;;;;;3.53;2.70;;;13.70;92.60;;;;;;5342140;26;20037;-66
2024/04/23 09:21:36;;;;;;;4.25;2.25;;;13.00;91.10;;;;;;5332265;26;20019;-65
2024/04/23 09:24:02;;;;;;;3.47;3.03;;;12.40;90.10;;;;;;5328241;26;20005;-65
2024/04/23 09:26:29;;;;;;;3.03;2.55;;;12.10;90.30;;;;;;5333435;26;20092;-65
2024/04/23 09:28:56;;;;;;;3.15;2.20;;;12.10;90.10;;;;;;5339267;26;20005;-66
2024/04/23 09:31:24;;;;;;;2.50;2.20;;;12.30;90.00;;;;;;5338684;26;20021;-65
2024/04/23 09:33:58;;;;;;;2.90;2.20;;;12.90;89.80;;;;;;5328149;26;20021;-65
2024/04/23 09:36:25;;;;;;;2.58;1.95;;;13.60;82.10;;;;;;5337162;26;20461;-65
2024/04/23 09:38:55;;;;;;;2.83;2.15;;;14.10;91.60;;;;;;5330274;26;20006;-65
2024/04/23 09:41:24;;;;;;;3.55;2.25;;;14.50;92.10;;;;;;5322948;26;20032;-65
2024/04/23 09:44:02;;;;;;;3.38;2.53;;;14.80;92.30;;;;;;5334390;26;20390;-66
2024/04/23 09:46:33;;;;;;;3.70;2.95;;;15.20;81.40;;;;;;5345592;26;20008;-65
2024/04/23 09:49:03;;;;;;;3.28;2.78;;;14.90;81.80;;;;;;5329938;26;20010;-65
2024/04/23 09:51:30;;;;;;;2.63;2.42;;;14.90;91.40;;;;;;5320802;26;20112;-65
2024/04/23 09:54:00;;;;;;;2.50;2.13;;;15.10;91.60;;;;;;5326931;26;20348;-66
2024/04/23 09:56:26;;;;;;;3.45;2.63;;;15.10;84.50;;;;;;5326084;26;20664;-65
2024/04/23 09:58:52;;;;;;;2.50;2.05;;;14.70;78.80;;;;;;5327222;26;20009;-65
2024/04/23 10:01:21;;;;;;;3.05;2.13;;;14.70;89.40;;;;;;5327017;26;20009;-65
2024/04/23 10:03:50;;;;;;;2.28;1.77;;;14.70;87.40;;;;;;5331731;26;20006;-65
2024/04/23 10:06:21;;;;;;;2.08;1.60;;;14.70;85.80;;;;;;5329080;26;20111;-66
2024/04/23 10:09:11;;;;;;;2.60;1.80;;;14.50;82.20;;;;;;5328023;26;20009;-65
2024/04/23 10:11:50;;;;;;;2.00;1.80;;;14.00;75.70;;;;;;5328264;26;20028;-66
2024/04/23 10:14:40;;;;;;;1.85;1.60;;;13.40;74.70;;;;;;5331234;26;20017;-66
2024/04/23 10:17:49;;;;;;;2.22;1.90;;;12.90;63.00;;;;;;5319212;26;20010;-65
2024/04/23 10:20:20;;;;;;;2.35;1.63;;;12.80;61.20;;;;;;5333180;26;20033;-66
2024/04/23 10:22:48;;;;;;;2.67;1.85;;;12.40;73.30;;;;;;5322797;26;20012;-66
2024/04/23 10:25:14;;;;;;;3.25;1.85;;;12.10;73.90;;;;;;5333544;26;20446;-65
2024/04/23 10:27:40;;;;;;;2.20;2.00;;;11.80;73.00;;;;;;5315866;26;20327;-65
2024/04/23 10:30:09;;;;;;;2.88;2.20;;;11.60;72.00;;;;;;5319171;26;20017;-66
2024/04/23 10:32:36;;;;;;;3.28;2.13;;;11.40;73.20;;;;;;5326704;26;20450;-66
2024/04/23 10:35:04;;;;;;;4.15;2.25;;;11.60;74.60;;;;;;5333669;26;20001;-66
2024/04/23 10:37:31;;;;;;;2.78;2.08;;;12.30;75.70;;;;;;5324354;26;20020;-66
2024/04/23 10:39:58;;;;;;;3.80;2.10;;;13.00;78.60;;;;;;5331848;26;20356;-66
2024/04/23 10:42:26;;;;;;;2.65;2.13;;;13.60;78.30;;;;;;5326081;26;20452;-67
2024/04/23 10:44:53;;;;;;;3.10;1.85;;;13.90;78.70;;;;;;5327155;26;20086;-66
2024/04/23 10:47:19;;;;;;;2.53;2.05;;;14.20;77.40;;;;;;5325176;26;20016;-67
2024/04/23 10:49:49;;;;;;;2.42;1.90;;;14.60;78.00;;;;;;5329210;26;20481;-67
2024/04/23 10:52:20;;;;;;;1.92;1.50;;;15.00;79.40;;;;;;5330436;26;20357;-66
2024/04/23 10:54:47;;;;;;;3.05;1.80;;;15.40;76.20;;;;;;5322487;26;20020;-67
2024/04/23 10:57:14;;;;;;;3.75;2.20;;;15.40;75.90;;;;;;5332017;26;20010;-66
2024/04/23 10:59:40;;;;;;;2.53;2.03;;;15.70;76.40;;;;;;5319122;26;20008;-66
2024/04/23 11:02:08;;;;;;;3.22;1.83;;;15.50;73.20;;;;;;5321222;26;20106;-67
2024/04/23 11:04:39;;;;;;;3.42;1.60;;;15.40;69.80;;;;;;5323796;26;20011;-66
2024/04/23 11:07:09;;;;;;;2.58;1.38;;;14.90;67.60;;;;;;5327242;26;20458;-66
2024/04/23 11:09:43;;;;;;;2.35;1.63;;;14.20;65.50;;;;;;5324041;26;20339;-66
2024/04/23 11:12:19;;;;;;;3.38;2.15;;;14.00;63.20;;;;;;5328201;26;20022;-67
2024/04/23 11:14:46;;;;;;;2.55;1.63;;;13.90;65.30;;;;;;5317261;26;20081;-66
2024/04/23 11:17:12;;;;;;;3.20;1.95;;;13.60;67.10;;;;;;5324983;26;20011;-66
2024/04/23 11:19:42;;;;;;;2.20;1.50;;;13.50;65.80;;;;;;5321883;26;20024;-67
2024/04/23 11:22:15;;;;;;;2.13;1.50;;;13.90;68.50;;;;;;5321613;26;20389;-67
2024/04/23 11:24:50;;;;;;;3.17;2.00;;;14.30;66.40;;;;;;5326114;26;20341;-66
2024/04/23 11:27:16;;;;;;;3.67;2.03;;;14.20;66.90;;;;;;5331428;26;20020;-67
2024/04/23 11:29:43;;;;;;;2.08;1.65;;;14.30;67.20;;;;;;5334055;26;20453;-66
2024/04/23 11:32:11;;;;;;;2.85;1.63;;;14.60;66.50;;;;;;5331728;26;20001;-66
2024/04/23 11:34:44;;;;;;;2.15;1.50;;;14.70;68.30;;;;;;5328463;26;20361;-66
2024/04/23 11:37:19;;;;;;;2.20;1.92;;;14.70;63.40;;;;;;5328337;26;20010;-66
2024/04/23 11:39:45;;;;;;;1.85;1.55;;;14.80;66.10;;;;;;5324795;26;20132;-67
2024/04/23 11:42:11;;;;;;;3.50;1.77;;;15.40;69.70;;;;;;5326142;26;20018;-66
2024/04/23 11:44:36;;;;;;;3.00;1.67;;;15.80;67.40;;;;;;5327259;26;20010;-67
2024/04/23 11:47:02;;;;;;;3.30;1.80;;;16.00;64.20;;;;;;5327151;26;20353;-64
2024/04/23 11:49:29;;;;;;;2.38;1.40;;;16.20;66.00;;;;;;5330532;26;20449;-65
2024/04/23 11:51:55;;;;;;;3.47;1.25;;;16.40;64.30;;;;;;5319260;26;20417;-65
2024/04/23 11:54:22;;;;;;;2.30;1.75;;;16.70;64.70;;;;;;5323725;26;20020;-66
2024/04/23 11:56:48;;;;;;;2.00;1.38;;;17.20;62.20;;;;;;5323917;26;20091;-66
2024/04/23 11:59:15;;;;;;;2.40;1.70;;;17.40;61.90;;;;;;5314554;26;20413;-66
2024/04/23 12:01:41;;;;;;;2.60;1.52;;;17.40;62.10;;;;;;5311620;26;20017;-66
2024/04/23 12:04:10;;;;;;;2.30;1.70;;;17.40;62.30;;;;;;5314023;26;20020;-66
2024/04/23 12:06:38;;;;;;;3.17;1.77;;;17.60;62.50;;;;;;5313455;26;20005;-66
2024/04/23 12:09:05;;;;;;;2.70;1.70;;;17.90;62.90;;;;;;5319262;26;20091;-65
2024/04/23 12:11:32;;;;;;;2.65;1.52;;;18.20;61.70;;;;;;5312008;26;20412;-70
2024/04/23 12:13:58;;;;;;;1.95;1.70;;;18.40;61.00;;;;;;5318255;26;20005;-70
2024/04/23 12:16:24;;;;;;;2.67;1.88;;;18.50;59.50;;;;;;5317628;26;20004;-69
2024/04/23 12:18:51;;;;;;;2.05;1.50;;;18.60;59.80;;;;;;5321736;26;20020;-69
2024/04/23 12:21:17;;;;;;;2.33;1.63;;;18.70;57.50;;;;;;5320561;26;20018;-70
2024/04/23 12:23:43;;;;;;;4.18;2.17;;;18.60;57.40;;;;;;5327150;26;20535;-70
2024/04/23 12:26:13;;;;;;;3.42;1.75;;;18.70;59.10;;;;;;5324956;26;20442;-70
2024/04/23 12:28:40;;;;;;;2.25;1.58;;;18.80;56.10;;;;;;5324757;26;20020;-69
2024/04/23 12:31:06;;;;;;;2.70;1.40;;;18.50;57.80;;;;;;5325258;26;20010;-70
2024/04/23 12:33:33;;;;;;;3.22;2.33;;;18.70;57.10;;;;;;5331024;26;20022;-70
2024/04/23 12:36:08;;;;;;;2.53;1.73;;;19.10;57.30;;;;;;5325129;26;20018;-70
2024/04/23 12:38:40;;;;;;;3.40;1.52;;;19.10;53.10;;;;;;5326108;26;20009;-70
2024/04/23 12:41:06;;;;;;;2.35;1.63;;;19.10;50.20;;;;;;5323788;26;20017;-69
2024/04/23 12:43:31;;;;;;;2.03;1.50;;;18.80;53.00;;;;;;5323957;26;20049;-70
2024/04/23 12:45:58;;;;;;;1.98;1.30;;;18.70;54.40;;;;;;5324815;26;20036;-70
2024/04/23 12:48:23;;;;;;;3.00;1.60;;;18.50;54.40;;;;;;5327918;26;20078;-69
2024/04/23 12:50:49;;;;;;;4.20;2.10;;;18.50;55.40;;;;;;5326168;26;20013;-69
2024/04/23 12:53:18;;;;;;;4.15;2.60;;;18.60;56.90;;;;;;5325250;26;20486;-70
2024/04/23 12:55:44;;;;;;;2.75;1.48;;;18.60;55.70;;;;;;5313915;26;20020;-69
2024/04/23 12:58:10;;;;;;;2.20;1.80;;;18.70;55.10;;;;;;5322231;26;20465;-69
2024/04/23 13:00:36;;;;;;;1.67;1.27;;;18.90;55.40;;;;;;5314343;26;20013;-68
2024/04/23 13:03:02;;;;;;;1.70;1.30;;;19.00;55.90;;;;;;5321577;26;20005;-69
2024/04/23 13:05:28;;;;;;;1.85;1.17;;;18.70;52.80;;;;;;5323201;26;20009;-69